Time;durP1;ratioP1;P1;durP2;ratioP2;P2;SDS_P1;SDS_P2;PMS_P1;PMS_P2;Temp;Humidity;BMP_temperature;BMP_pressure;BME280_temperature;BME280_humidity;BME280_pressure;Samples;Min_cycle;Max_cycle;Signal;HPM_P1;HPM_P2
2022/01/13 00:00:33;;;;;;;34.63;21.40;;;;;;;-3.11;56.29;101235.97;6313728;22;20010;-77
2022/01/13 00:02:58;;;;;;;29.57;18.57;;;;;;;-3.06;56.63;101238.38;6313690;22;19999;-77
2022/01/13 00:05:28;;;;;;;28.93;18.37;;;;;;;-3.00;56.47;101238.19;6313804;22;19991;-78
2022/01/13 00:07:55;;;;;;;36.00;20.83;;;;;;;-3.55;56.03;101153.03;6280900;22;20007;-78
2022/01/13 00:10:22;;;;;;;29.03;19.63;;;;;;;-2.91;56.29;101240.50;6309021;22;19987;-77
2022/01/13 00:12:55;;;;;;;29.37;18.60;;;;;;;-3.08;55.87;101197.09;6308905;22;20070;-78
2022/01/13 00:15:25;;;;;;;31.63;20.30;;;;;;;-3.02;55.96;101208.97;6309122;22;20003;-78
2022/01/13 00:18:00;;;;;;;37.37;23.30;;;;;;;-2.77;55.92;101240.03;6308606;22;20068;-77
2022/01/13 00:23:40;;;;;;;37.90;24.27;;;;;;;-2.71;55.95;101243.25;6314023;22;20019;-78
2022/01/13 00:25:37;;;;;;;30.60;19.57;;;;;;;-2.74;55.81;101232.16;6314024;22;20062;-77
2022/01/13 00:28:12;;;;;;;32.23;21.33;;;;;;;-3.00;55.99;101173.59;6313839;22;20002;-77
2022/01/13 00:30:38;;;;;;;34.40;21.20;;;;;;;-2.74;55.71;101214.91;6313825;22;19991;-78
2022/01/13 00:33:04;;;;;;;35.67;22.50;;;;;;;-2.98;55.96;101175.22;6314056;22;20006;-77
2022/01/13 00:35:29;;;;;;;33.20;21.20;;;;;;;-2.66;55.78;101240.50;6312520;22;20000;-77
2022/01/13 00:37:55;;;;;;;40.07;25.57;;;;;;;-2.53;55.29;101249.53;6309559;22;20052;-78
2022/01/13 00:40:20;;;;;;;38.70;24.53;;;;;;;-2.74;55.93;101211.50;6310173;22;20000;-78
2022/01/13 00:42:45;;;;;;;38.97;25.20;;;;;;;-2.83;55.73;101204.06;6309582;22;20029;-78
2022/01/13 00:45:14;;;;;;;36.73;24.63;;;;;;;-3.35;55.90;101125.69;6308788;22;20352;-78
2022/01/13 00:47:40;;;;;;;43.40;30.57;;;;;;;-2.68;55.98;101252.66;6309332;22;19999;-78
2022/01/13 00:50:07;;;;;;;46.50;27.87;;;;;;;-2.66;55.92;101256.03;6308625;22;19991;-77
2022/01/13 00:52:32;;;;;;;51.17;32.13;;;;;;;-2.69;56.13;101271.63;6308233;22;20074;-77
2022/01/13 00:55:01;;;;;;;46.17;28.77;;;;;;;-3.36;55.99;101144.69;6308387;22;19992;-77
2022/01/13 00:57:28;;;;;;;43.73;24.80;;;;;;;-3.08;56.44;101189.34;6308593;22;20000;-78
2022/01/13 00:59:53;;;;;;;37.10;22.57;;;;;;;-2.87;56.26;101226.56;6308724;22;19999;-78
2022/01/13 01:02:19;;;;;;;34.73;21.80;;;;;;;-2.94;56.39;101220.78;6309119;22;20032;-78
2022/01/13 01:04:44;;;;;;;37.13;21.70;;;;;;;-3.17;55.94;101191.41;6308665;22;20052;-78
2022/01/13 01:07:10;;;;;;;27.87;18.90;;;;;;;-3.58;56.26;101132.47;6307521;22;19996;-78
2022/01/13 01:09:58;;;;;;;25.13;17.00;;;;;;;-2.90;56.13;101248.19;6306831;22;20436;-77
2022/01/13 01:12:21;;;;;;;26.43;16.43;;;;;;;-3.51;55.96;101169.25;6305941;22;19995;-78
2022/01/13 01:14:54;;;;;;;27.47;17.73;;;;;;;-3.66;56.31;101156.84;6306829;22;19999;-78
2022/01/13 01:17:20;;;;;;;25.23;16.20;;;;;;;-3.29;56.42;101211.56;6307242;22;19995;-77
2022/01/13 01:19:49;;;;;;;27.30;16.67;;;;;;;-3.36;56.44;101207.50;6306507;22;20007;-77
2022/01/13 01:25:02;;;;;;;21.03;14.20;;;;;;;-3.57;56.48;101193.53;6306515;22;20064;-78
2022/01/13 01:27:33;;;;;;;26.00;15.00;;;;;;;-3.28;56.43;101252.00;6306407;22;19995;-78
2022/01/13 01:32:44;;;;;;;23.93;14.70;;;;;;;-3.75;56.51;101191.50;6284807;22;20010;-77
2022/01/13 01:35:14;;;;;;;25.67;15.20;;;;;;;-3.81;56.60;101183.09;6307563;22;19999;-78
2022/01/13 01:37:42;;;;;;;22.73;14.97;;;;;;;-3.34;56.62;101259.94;6309342;22;20118;-77
2022/01/13 01:40:10;;;;;;;21.17;14.83;;;;;;;-3.66;56.39;101205.88;6307274;22;20353;-77
2022/01/13 01:42:35;;;;;;;23.43;14.37;;;;;;;-3.36;56.39;101258.28;6308147;22;19999;-78
2022/01/13 01:45:01;;;;;;;24.40;14.40;;;;;;;-3.48;56.82;101251.78;6308072;22;20037;-78
2022/01/13 01:47:29;;;;;;;20.67;14.03;;;;;;;-3.43;56.61;101255.06;6307660;22;20074;-78
2022/01/13 01:50:08;;;;;;;19.80;13.23;;;;;;;-3.42;56.50;101269.66;6307380;22;20002;-78
2022/01/13 01:52:34;;;;;;;20.70;13.07;;;;;;;-3.84;56.57;101190.03;6307213;22;19999;-78
2022/01/13 01:54:59;;;;;;;19.33;12.97;;;;;;;-3.68;56.27;101213.66;6307247;22;19992;-78
2022/01/13 01:57:25;;;;;;;21.10;13.60;;;;;;;-3.40;56.59;101260.13;6307210;22;20345;-78
2022/01/13 01:59:53;;;;;;;21.57;13.77;;;;;;;-3.91;56.61;101173.06;6306830;22;19999;-78
2022/01/13 02:02:18;;;;;;;26.33;14.63;;;;;;;-3.37;56.46;101260.03;6279605;22;20510;-78
2022/01/13 02:04:44;;;;;;;24.33;15.17;;;;;;;-3.74;56.87;101208.66;6307551;22;19995;-78
2022/01/13 02:07:10;;;;;;;21.93;14.33;;;;;;;-3.35;56.80;101260.84;6279034;22;19995;-77
2022/01/13 02:09:38;;;;;;;21.00;14.87;;;;;;;-3.35;56.79;101260.84;6305939;22;20018;-78
2022/01/13 02:12:08;;;;;;;23.27;14.30;;;;;;;-3.32;56.51;101265.06;6306165;22;20392;-78
2022/01/13 02:14:47;;;;;;;21.80;14.80;;;;;;;-3.31;56.56;101259.84;6306099;22;19995;-77
2022/01/13 02:17:21;;;;;;;25.33;15.13;;;;;;;-3.80;56.23;101177.88;6278948;22;20003;-78
2022/01/13 02:19:48;;;;;;;22.63;14.97;;;;;;;-3.32;56.54;101253.00;6306139;22;20004;-78
2022/01/13 02:22:13;;;;;;;25.27;16.00;;;;;;;-3.54;56.48;101226.16;6278697;22;20325;-77
2022/01/13 02:24:39;;;;;;;29.67;16.47;;;;;;;-3.86;56.21;101168.59;6306038;22;20001;-77
2022/01/13 02:27:06;;;;;;;26.00;16.07;;;;;;;-3.25;56.49;101259.66;6306105;22;20436;-77
2022/01/13 02:29:32;;;;;;;25.47;16.93;;;;;;;-3.63;56.29;101192.88;6306107;22;20391;-78
2022/01/13 02:31:58;;;;;;;22.90;15.70;;;;;;;-3.54;56.48;101210.66;6306312;22;20026;-77
2022/01/13 02:34:23;;;;;;;27.73;16.10;;;;;;;-3.20;56.44;101259.50;6278480;22;20120;-77
2022/01/13 02:36:53;;;;;;;24.07;15.60;;;;;;;-3.31;56.49;101246.94;6306011;22;19999;-77
2022/01/13 02:39:23;;;;;;;30.73;18.40;;;;;;;-3.58;56.45;101196.16;6278433;22;20003;-77
2022/01/13 02:41:49;;;;;;;29.13;17.30;;;;;;;-3.53;56.55;101208.03;6306115;22;20060;-78
2022/01/13 02:44:19;;;;;;;29.93;17.70;;;;;;;-3.33;56.33;101240.97;6305832;22;20403;-77
2022/01/13 02:49:18;;;;;;;28.05;18.25;;;;;;;-3.32;56.29;101253.00;6306085;22;20122;-77
2022/01/13 02:51:46;;;;;;;27.17;16.63;;;;;;;-3.57;56.36;101203.00;6306009;22;19999;-78
2022/01/13 02:54:12;;;;;;;31.67;18.00;;;;;;;-3.29;56.44;101254.63;6278476;22;20476;-77
2022/01/13 02:56:38;;;;;;;25.30;16.13;;;;;;;-3.29;55.74;101254.63;6306073;22;19995;-77
2022/01/13 02:59:05;;;;;;;28.67;16.87;;;;;;;-3.29;55.97;101252.88;6278651;22;20023;-77
2022/01/13 03:01:31;;;;;;;25.57;15.47;;;;;;;-3.40;56.40;101233.47;6306064;22;20005;-77
2022/01/13 03:03:57;;;;;;;29.43;17.03;;;;;;;-3.31;56.34;101246.94;6305490;22;20023;-78
2022/01/13 03:06:32;;;;;;;28.93;15.50;;;;;;;-3.82;56.44;101161.59;6305792;22;20033;-78
2022/01/13 03:08:58;;;;;;;23.87;15.10;;;;;;;-3.35;56.27;101245.34;6305798;22;20016;-77
2022/01/13 03:11:31;;;;;;;22.43;13.97;;;;;;;-3.34;55.89;101264.25;6305549;22;20066;-77
2022/01/13 03:13:56;;;;;;;24.43;16.33;;;;;;;-3.30;56.28;101255.53;6305791;22;19999;-78
2022/01/13 03:16:22;;;;;;;23.17;14.27;;;;;;;-3.30;56.22;101251.19;6305666;22;20413;-77
2022/01/13 03:18:47;;;;;;;22.63;14.60;;;;;;;-3.98;56.22;101143.16;6305364;22;20010;-77
2022/01/13 03:21:13;;;;;;;23.90;15.10;;;;;;;-3.69;55.89;101187.91;6305673;22;20391;-77
2022/01/13 03:23:38;;;;;;;29.07;17.87;;;;;;;-3.52;56.27;101219.19;6305643;22;20511;-77
2022/01/13 03:26:04;;;;;;;27.07;17.17;;;;;;;-3.36;56.01;101246.22;6305805;22;19988;-77
2022/01/13 03:28:31;;;;;;;25.00;16.83;;;;;;;-3.61;56.40;101214.31;6305202;22;20006;-77
2022/01/13 03:31:01;;;;;;;27.40;18.23;;;;;;;-3.97;55.67;101152.59;6305365;22;19999;-78
2022/01/13 03:33:27;;;;;;;29.47;18.00;;;;;;;-3.89;56.14;101173.00;6306408;22;20074;-78
2022/01/13 03:35:53;;;;;;;27.87;19.73;;;;;;;-3.84;56.01;101186.63;6306497;22;19995;-78
2022/01/13 03:38:18;;;;;;;28.50;18.60;;;;;;;-3.45;56.00;101259.44;6307841;22;19999;-77
2022/01/13 03:40:44;;;;;;;32.10;20.57;;;;;;;-3.63;56.02;101232.44;6308535;22;20003;-78
2022/01/13 03:43:11;;;;;;;32.17;21.53;;;;;;;-3.51;55.92;101249.28;6308962;22;19995;-78
2022/01/13 03:45:36;;;;;;;29.77;18.90;;;;;;;-3.57;55.74;101234.84;6308615;22;20460;-77
2022/01/13 03:48:03;;;;;;;28.07;18.90;;;;;;;-3.47;55.89;101250.88;6308143;22;20030;-77
2022/01/13 03:50:28;;;;;;;27.40;18.13;;;;;;;-3.65;55.60;101236.81;6308943;22;19998;-77
2022/01/13 03:53:01;;;;;;;27.37;18.90;;;;;;;-3.51;55.74;101257.03;6310045;22;20441;-77
2022/01/13 03:55:35;;;;;;;26.77;17.23;;;;;;;-3.51;56.31;101259.63;6309981;22;19995;-78
2022/01/13 03:58:38;;;;;;;23.30;16.53;;;;;;;-3.45;55.83;101266.34;6308492;22;19995;-78
2022/01/13 04:01:39;;;;;;;25.83;16.83;;;;;;;-3.65;55.53;101239.38;6309431;22;20011;-77
2022/01/13 04:04:06;;;;;;;25.63;16.30;;;;;;;-3.53;55.92;101254.50;6279024;22;20495;-77
2022/01/13 04:06:41;;;;;;;26.57;18.40;;;;;;;-3.44;56.12;101261.13;6278512;22;20000;-77
2022/01/13 04:09:28;;;;;;;26.17;17.30;;;;;;;-4.00;55.96;101165.59;6277198;22;19991;-77
2022/01/13 04:11:54;;;;;;;25.03;15.97;;;;;;;-3.82;56.14;101195.16;6277562;22;19996;-77
2022/01/13 04:14:36;;;;;;;26.83;18.17;;;;;;;-3.39;56.00;101255.81;6277539;22;20007;-78
2022/01/13 04:17:02;;;;;;;29.83;20.20;;;;;;;-3.42;56.25;101259.34;6277949;22;20007;-77
2022/01/13 04:19:28;;;;;;;26.33;17.50;;;;;;;-3.39;55.40;101266.16;6276738;22;20004;-77
2022/01/13 04:21:53;;;;;;;23.83;16.40;;;;;;;-5.56;55.59;100909.03;6278285;22;21327;-77
2022/01/13 04:24:19;;;;;;;29.57;18.90;;;;;;;-3.96;56.35;101169.78;6279609;22;20000;-77
2022/01/13 04:26:44;;;;;;;27.23;18.37;;;;;;;-3.58;55.95;101238.31;6277362;22;20006;-77
2022/01/13 04:31:42;;;;;;;32.00;19.10;;;;;;;-3.65;55.71;101225.63;6277514;22;20077;-77
2022/01/13 04:34:09;;;;;;;28.07;19.93;;;;;;;-3.53;56.05;101258.81;6250240;22;20019;-77
2022/01/13 04:36:34;;;;;;;32.53;20.90;;;;;;;-4.03;56.02;101181.16;6277771;22;20588;-77
2022/01/13 04:39:00;;;;;;;35.10;21.20;;;;;;;-3.46;56.04;101278.41;6278121;22;20003;-77
2022/01/13 04:41:36;;;;;;;38.03;24.03;;;;;;;-3.91;56.10;101219.50;6277042;22;19999;-78
2022/01/13 04:44:06;;;;;;;36.20;23.13;;;;;;;-3.48;56.19;101275.00;6278604;22;19999;-77
2022/01/13 04:46:31;;;;;;;41.33;26.23;;;;;;;-3.58;56.24;101271.88;6277958;22;20506;-77
2022/01/13 04:48:57;;;;;;;35.17;22.43;;;;;;;-3.44;56.20;101283.50;6252016;22;19992;-77
2022/01/13 04:51:22;;;;;;;35.37;23.53;;;;;;;-3.48;56.32;101300.84;6278845;22;20007;-78
2022/01/13 04:53:48;;;;;;;37.47;22.87;;;;;;;-3.73;56.28;101258.53;6276447;22;19995;-77
2022/01/13 04:56:26;;;;;;;35.63;22.60;;;;;;;-3.77;56.85;101259.53;6277923;22;20000;-77
2022/01/13 04:58:52;;;;;;;40.70;25.77;;;;;;;-3.70;56.43;101282.56;6276585;22;20003;-77
2022/01/13 05:01:17;;;;;;;41.70;27.40;;;;;;;-4.21;56.89;101198.03;6277072;22;20492;-77
2022/01/13 05:03:42;;;;;;;45.67;28.47;;;;;;;-4.17;56.73;101242.63;6277388;22;20460;-78
2022/01/13 05:06:08;;;;;;;43.00;28.20;;;;;;;-4.36;56.73;101187.31;6276984;22;20070;-78
2022/01/13 05:08:34;;;;;;;43.97;26.87;;;;;;;-3.67;56.86;101297.09;6275683;22;20433;-77
2022/01/13 05:10:59;;;;;;;43.30;27.93;;;;;;;-4.00;57.11;101234.41;6276373;22;20075;-77
2022/01/13 05:13:25;;;;;;;44.07;29.97;;;;;;;-3.61;56.19;101312.41;6276649;22;19991;-78
2022/01/13 05:15:52;;;;;;;43.77;30.03;;;;;;;-3.78;56.35;101273.31;6276623;22;20460;-77
2022/01/13 05:20:50;;;;;;;50.23;31.37;;;;;;;-3.66;56.50;101307.38;6277457;22;20008;-78
2022/01/13 05:23:16;;;;;;;43.40;28.40;;;;;;;-4.12;56.90;101232.16;6275975;22;19996;-77
2022/01/13 05:25:43;;;;;;;63.20;35.03;;;;;;;-3.64;56.08;101307.34;6248738;22;20006;-77
2022/01/13 05:28:10;;;;;;;60.07;34.63;;;;;;;-3.66;56.47;101314.28;6275753;22;20167;-78
2022/01/13 05:30:35;;;;;;;49.80;31.20;;;;;;;-3.81;56.05;101287.16;6249295;22;19996;-77
2022/01/13 05:33:01;;;;;;;43.57;28.57;;;;;;;-3.75;56.25;101327.44;6275688;22;20007;-77
2022/01/13 05:35:27;;;;;;;41.40;23.97;;;;;;;-3.98;56.77;101315.19;6275765;22;20453;-77
2022/01/13 05:37:53;;;;;;;42.20;23.40;;;;;;;-4.03;56.78;101324.78;6275882;22;19996;-78
2022/01/13 05:40:18;;;;;;;49.77;20.87;;;;;;;-4.53;56.40;101255.59;6276276;22;20031;-77
2022/01/13 05:42:44;;;;;;;38.83;21.67;;;;;;;-4.54;56.64;101268.53;6277485;22;20468;-78
2022/01/13 05:45:15;;;;;;;36.07;20.70;;;;;;;-4.33;56.42;101290.34;6278090;22;20002;-77
2022/01/13 05:47:43;;;;;;;29.58;17.83;;;;;;;-4.33;56.27;101322.13;6250072;22;20411;-78
2022/01/13 05:50:10;;;;;;;32.47;20.83;;;;;;;-4.43;56.74;101301.78;6277196;22;20078;-78
2022/01/13 05:52:35;;;;;;;30.90;21.03;;;;;;;-4.85;56.49;101251.28;6276473;22;20444;-77
2022/01/13 05:55:03;;;;;;;32.30;22.00;;;;;;;-4.92;56.43;101220.56;6276899;22;20042;-78
2022/01/13 05:57:28;;;;;;;37.63;22.57;;;;;;;-4.29;56.99;101343.53;6276010;22;20004;-78
2022/01/13 05:59:54;;;;;;;39.47;25.43;;;;;;;-4.48;56.58;101301.88;6248969;22;20084;-77
2022/01/13 06:02:19;;;;;;;35.93;24.30;;;;;;;-4.20;56.67;101333.81;6277371;22;20045;-78
2022/01/13 06:04:44;;;;;;;40.67;26.03;;;;;;;-4.07;57.10;101339.50;6276085;22;20000;-78
2022/01/13 06:07:10;;;;;;;38.40;26.03;;;;;;;-3.98;56.28;101336.66;6276644;22;20078;-78
2022/01/13 06:09:35;;;;;;;41.63;27.53;;;;;;;-4.30;56.37;101295.41;6276557;22;20031;-78
2022/01/13 06:12:03;;;;;;;41.03;28.80;;;;;;;-4.52;56.55;101275.34;6248703;22;20073;-77
2022/01/13 06:14:29;;;;;;;52.57;31.13;;;;;;;-4.67;57.15;101255.13;6276078;22;20481;-78
2022/01/13 06:16:54;;;;;;;57.77;37.00;;;;;;;-4.00;57.16;101353.06;6276592;22;20003;-78
2022/01/13 06:19:20;;;;;;;58.63;38.13;;;;;;;-4.36;56.96;101285.28;6275924;22;20031;-78
2022/01/13 06:21:46;;;;;;;65.60;39.30;;;;;;;-4.28;56.69;101294.50;6275462;22;20007;-77
2022/01/13 06:24:12;;;;;;;59.27;38.93;;;;;;;-3.66;56.28;101358.16;6274866;22;20071;-78
2022/01/13 06:26:37;;;;;;;56.27;39.47;;;;;;;-3.91;56.41;101311.53;6275025;22;20053;-78
2022/01/13 06:29:03;;;;;;;59.20;37.97;;;;;;;-4.11;56.19;101272.56;6275158;22;20390;-77
2022/01/13 06:31:28;;;;;;;55.83;38.77;;;;;;;-3.79;56.53;101336.16;6274821;22;20046;-77
2022/01/13 06:33:53;;;;;;;61.53;39.30;;;;;;;-3.87;56.23;101316.56;6274662;22;20000;-77
2022/01/13 06:36:19;;;;;;;65.03;40.80;;;;;;;-3.75;56.38;101338.59;6274756;22;19995;-77
2022/01/13 06:38:48;;;;;;;65.03;41.83;;;;;;;-3.45;55.94;101380.78;6275280;22;20394;-77
2022/01/13 06:41:15;;;;;;;73.53;43.73;;;;;;;-3.46;56.36;101392.00;6274894;22;20003;-77
2022/01/13 06:43:40;;;;;;;94.07;57.10;;;;;;;-3.43;56.17;101391.91;6274734;22;19999;-77
2022/01/13 06:46:06;;;;;;;87.17;54.60;;;;;;;-3.42;56.41;101400.50;6275021;22;19996;-77
2022/01/13 06:48:31;;;;;;;99.40;62.50;;;;;;;-3.61;56.36;101345.97;6274721;22;20063;-77
2022/01/13 06:50:57;;;;;;;105.20;64.60;;;;;;;-3.41;56.31;101382.38;6274837;22;20448;-77
2022/01/13 06:53:22;;;;;;;118.37;71.53;;;;;;;-3.65;56.07;101334.88;6275658;22;19996;-78
2022/01/13 06:55:48;;;;;;;128.63;79.17;;;;;;;-3.52;56.03;101358.63;6248054;22;20004;-78
2022/01/13 06:58:13;;;;;;;140.70;85.37;;;;;;;-3.49;56.19;101357.69;6276163;22;20022;-78
2022/01/13 07:00:39;;;;;;;135.27;80.73;;;;;;;-3.72;56.13;101319.59;6275601;22;20441;-78
2022/01/13 07:03:04;;;;;;;131.00;82.97;;;;;;;-3.72;56.86;101325.59;6246936;22;20035;-77
2022/01/13 07:05:30;;;;;;;153.67;97.30;;;;;;;-3.36;56.64;101364.19;6274569;22;19992;-77
2022/01/13 07:07:56;;;;;;;147.77;93.37;;;;;;;-3.71;56.32;101304.09;6274181;22;20057;-77
2022/01/13 07:10:21;;;;;;;154.50;101.50;;;;;;;-3.38;56.21;101347.88;6273974;22;19996;-77
2022/01/13 07:12:47;;;;;;;169.07;107.87;;;;;;;-3.71;56.72;101309.25;6275268;22;19995;-77
2022/01/13 07:15:13;;;;;;;157.60;100.87;;;;;;;-3.55;55.98;101317.41;6246967;22;20065;-77
2022/01/13 07:17:39;;;;;;;155.67;101.13;;;;;;;-3.20;55.87;101360.25;6276969;22;20018;-77
2022/01/13 07:20:06;;;;;;;157.47;101.77;;;;;;;-3.11;55.92;101370.28;6249270;22;20069;-77
2022/01/13 07:22:31;;;;;;;174.77;109.07;;;;;;;-2.90;56.03;101410.16;6249168;22;20401;-77
2022/01/13 07:24:57;;;;;;;168.23;108.37;;;;;;;-2.79;55.81;101412.44;6275827;22;20049;-77
2022/01/13 07:27:22;;;;;;;186.57;121.13;;;;;;;-3.32;56.07;101329.63;6276517;22;20002;-78
2022/01/13 07:29:48;;;;;;;185.70;120.60;;;;;;;-2.92;55.55;101379.22;6276426;22;20019;-78
2022/01/13 07:32:17;;;;;;;187.47;122.67;;;;;;;-2.59;56.38;101418.66;6274874;22;19999;-77
2022/01/13 07:34:43;;;;;;;160.53;101.20;;;;;;;-3.08;55.93;101343.53;6273260;22;20529;-77
2022/01/13 07:37:08;;;;;;;158.23;106.60;;;;;;;-2.67;56.11;101423.22;6275924;22;20070;-77
2022/01/13 07:39:38;;;;;;;154.93;103.70;;;;;;;-2.53;55.42;101451.25;6273549;22;20003;-77
2022/01/13 07:42:05;;;;;;;163.00;109.87;;;;;;;-2.49;55.82;101428.72;6275506;22;20330;-77
2022/01/13 07:44:31;;;;;;;149.17;98.53;;;;;;;-2.40;56.27;101425.81;6275691;22;19995;-77
2022/01/13 07:46:58;;;;;;;153.47;105.53;;;;;;;-2.51;56.05;101407.22;6275228;22;20027;-77
2022/01/13 07:49:24;;;;;;;152.07;102.50;;;;;;;-2.38;56.06;101427.47;6275180;22;19992;-78
2022/01/13 07:51:50;;;;;;;158.87;110.80;;;;;;;-2.38;55.58;101419.72;6274881;22;20062;-78
2022/01/13 07:54:15;;;;;;;149.40;102.17;;;;;;;-2.35;55.59;101429.09;6275546;22;20494;-77
2022/01/13 07:56:41;;;;;;;151.47;98.10;;;;;;;-2.38;55.35;101411.09;6274942;22;20002;-77
2022/01/13 07:59:06;;;;;;;132.17;87.80;;;;;;;-2.23;55.66;101426.13;6275447;22;20000;-77
2022/01/13 08:01:32;;;;;;;118.13;80.83;;;;;;;-2.10;55.68;101440.38;6275650;22;20444;-77
2022/01/13 08:03:57;;;;;;;110.13;73.13;;;;;;;-2.44;55.25;101370.78;6275360;22;19999;-77
2022/01/13 08:06:23;;;;;;;96.80;64.17;;;;;;;-2.09;56.01;101416.19;6275432;22;20000;-77
2022/01/13 08:08:48;;;;;;;90.73;61.20;;;;;;;-2.29;55.66;101372.00;6274470;22;19999;-77
2022/01/13 08:11:13;;;;;;;103.40;60.57;;;;;;;-1.94;55.39;101407.91;6275730;22;19992;-78
2022/01/13 08:13:39;;;;;;;91.50;63.20;;;;;;;-1.84;56.11;101425.69;6275784;22;20004;-77
2022/01/13 08:16:09;;;;;;;90.57;60.07;;;;;;;-1.86;55.84;101410.22;6276174;22;20438;-77
2022/01/13 08:21:21;;;;;;;97.07;65.67;;;;;;;-1.86;55.72;101405.03;6275102;22;20066;-77
2022/01/13 08:23:46;;;;;;;95.83;66.23;;;;;;;-1.57;55.49;101429.06;6275483;22;20039;-77
2022/01/13 08:26:12;;;;;;;89.47;62.13;;;;;;;-1.47;56.08;101435.63;6275474;22;20030;-78
2022/01/13 08:28:37;;;;;;;101.00;66.37;;;;;;;-1.44;55.98;101428.59;6247483;22;20011;-78
2022/01/13 08:31:03;;;;;;;94.40;64.57;;;;;;;-1.38;56.22;101433.56;6275643;22;19999;-78
2022/01/13 08:33:30;;;;;;;96.43;63.97;;;;;;;-1.33;55.47;101426.44;6247682;22;20000;-77
2022/01/13 08:35:56;;;;;;;103.50;69.57;;;;;;;-1.25;55.30;101427.91;6274883;22;20007;-78
2022/01/13 08:38:23;;;;;;;106.10;66.30;;;;;;;-1.23;55.86;101431.28;6249249;22;20003;-77
2022/01/13 08:40:56;;;;;;;101.47;67.23;;;;;;;-1.20;55.48;101426.84;6275818;22;20511;-78
2022/01/13 08:43:22;;;;;;;95.77;60.50;;;;;;;-1.16;55.61;101440.53;6275398;22;20003;-77
2022/01/13 08:45:48;;;;;;;95.47;64.27;;;;;;;-1.34;55.76;101375.53;6275844;22;20507;-77
2022/01/13 08:48:14;;;;;;;91.47;60.27;;;;;;;-0.99;56.00;101422.59;6275354;22;20018;-77
2022/01/13 08:50:40;;;;;;;84.67;59.07;;;;;;;-1.69;55.68;101288.75;6247182;22;20003;-77
2022/01/13 08:53:06;;;;;;;80.63;53.93;;;;;;;-1.24;55.88;101350.13;6275366;22;20465;-77
2022/01/13 08:55:32;;;;;;;77.60;51.70;;;;;;;-1.21;55.27;101338.78;6275381;22;19996;-77
2022/01/13 08:57:57;;;;;;;67.27;46.20;;;;;;;-1.03;55.74;101356.22;6275221;22;19999;-77
2022/01/13 09:00:23;;;;;;;71.57;48.97;;;;;;;-0.99;55.79;101369.00;6275902;22;20000;-77
2022/01/13 09:02:48;;;;;;;63.97;44.73;;;;;;;-0.53;55.83;101418.22;6247924;22;20445;-77
2022/01/13 09:05:16;;;;;;;77.00;49.27;;;;;;;-0.50;55.51;101426.72;6274836;22;20441;-77
2022/01/13 09:07:42;;;;;;;73.57;52.87;;;;;;;-0.40;55.28;101416.81;6274186;22;20002;-77
2022/01/13 09:10:08;;;;;;;62.50;43.93;;;;;;;-0.63;55.81;101367.63;6275283;22;19996;-77
2022/01/13 09:12:34;;;;;;;41.97;30.80;;;;;;;-0.54;55.84;101375.88;6248322;22;20349;-78
2022/01/13 09:15:13;;;;;;;76.63;51.73;;;;;;;-0.21;56.02;101420.34;6275079;22;19995;-77
2022/01/13 09:17:39;;;;;;;75.03;51.33;;;;;;;-0.67;55.87;101321.06;6275057;22;20006;-77
2022/01/13 09:20:05;;;;;;;28.00;20.17;;;;;;;-0.13;56.34;101394.91;6247871;22;20445;-77
2022/01/13 09:22:31;;;;;;;22.43;14.97;;;;;;;-0.69;56.39;101298.69;6275071;22;20053;-77
2022/01/13 09:24:56;;;;;;;22.87;15.30;;;;;;;-0.19;56.35;101358.84;6248380;22;20003;-79
2022/01/13 09:27:22;;;;;;;20.57;15.13;;;;;;;0.02;56.30;101388.25;6275704;22;20047;-79
2022/01/13 09:29:47;;;;;;;25.77;17.70;;;;;;;0.16;56.23;101411.88;6275412;22;20404;-79
2022/01/13 09:32:13;;;;;;;23.73;16.40;;;;;;;0.27;56.48;101398.44;6274961;22;20384;-79
2022/01/13 09:34:41;;;;;;;28.17;20.27;;;;;;;-0.05;56.57;101327.94;6248006;22;20014;-79
2022/01/13 09:37:08;;;;;;;25.10;16.13;;;;;;;-0.33;56.88;101276.38;6247897;22;20065;-79
2022/01/13 09:39:33;;;;;;;22.10;15.10;;;;;;;0.28;56.50;101358.56;6273272;22;20000;-79
2022/01/13 09:42:01;;;;;;;22.07;15.53;;;;;;;-0.21;56.27;101264.63;6275359;22;19996;-79
2022/01/13 09:44:28;;;;;;;22.13;15.33;;;;;;;0.06;56.43;101290.28;6247978;22;20031;-79
2022/01/13 09:46:53;;;;;;;20.87;15.03;;;;;;;0.35;56.21;101326.19;6274995;22;19995;-79
2022/01/13 09:49:19;;;;;;;18.60;12.93;;;;;;;0.43;55.89;101328.44;6273720;22;20003;-79
2022/01/13 09:51:45;;;;;;;18.03;12.70;;;;;;;0.72;55.49;101359.13;6274055;22;20023;-80
2022/01/13 09:54:11;;;;;;;20.57;12.57;;;;;;;0.47;55.25;101304.84;6272781;22;20010;-79
2022/01/13 09:56:36;;;;;;;16.73;12.90;;;;;;;0.66;55.22;101332.59;6276253;22;20053;-79
2022/01/13 09:59:02;;;;;;;16.00;11.63;;;;;;;0.78;54.98;101329.44;6273646;22;20375;-79
2022/01/13 10:01:27;;;;;;;16.87;12.33;;;;;;;1.12;54.71;101365.09;6273990;22;20022;-79
2022/01/13 10:03:53;;;;;;;17.83;12.33;;;;;;;1.20;54.52;101368.16;6272541;22;20090;-79
2022/01/13 10:06:21;;;;;;;17.83;12.57;;;;;;;1.30;54.25;101372.03;6274086;22;20039;-79
2022/01/13 10:08:46;;;;;;;18.27;13.40;;;;;;;1.39;54.24;101365.53;6274682;22;19995;-79
2022/01/13 10:11:24;;;;;;;22.20;15.30;;;;;;;1.44;54.27;101371.34;6275598;22;20007;-79
2022/01/13 10:14:13;;;;;;;19.93;13.67;;;;;;;1.36;53.16;101360.47;6275416;22;20003;-79
2022/01/13 10:16:48;;;;;;;22.13;14.50;;;;;;;1.43;54.11;101352.28;6274927;22;20071;-79
2022/01/13 10:19:32;;;;;;;18.17;14.20;;;;;;;1.52;54.06;101349.25;6247073;22;20003;-79
2022/01/13 10:22:13;;;;;;;20.07;13.80;;;;;;;1.33;54.25;101305.97;6273523;22;20003;-80
2022/01/13 10:24:44;;;;;;;21.63;14.83;;;;;;;1.70;54.32;101334.47;6246484;22;20015;-78
2022/01/13 10:27:13;;;;;;;19.40;14.20;;;;;;;1.76;54.38;101334.16;6272924;22;20096;-78
2022/01/13 10:29:52;;;;;;;22.37;14.43;;;;;;;1.85;54.04;101327.66;6273718;22;20764;-78
2022/01/13 10:32:22;;;;;;;23.30;15.33;;;;;;;1.93;54.02;101325.50;6274332;22;20501;-78
2022/01/13 10:34:51;;;;;;;24.17;15.83;;;;;;;1.75;53.75;101296.03;6273888;22;20000;-78
2022/01/13 10:37:20;;;;;;;23.07;16.97;;;;;;;2.00;54.03;101319.03;6273037;22;19995;-78
2022/01/13 10:39:56;;;;;;;20.10;14.60;;;;;;;1.85;53.73;101280.75;6247438;22;20038;-78
2022/01/13 10:45:07;;;;;;;19.03;13.70;;;;;;;1.62;53.25;101236.84;6273589;22;20004;-78
2022/01/13 10:47:34;;;;;;;17.10;12.83;;;;;;;1.97;53.54;101295.75;6273642;22;20012;-78
2022/01/13 10:50:04;;;;;;;18.93;13.83;;;;;;;2.00;53.27;101300.81;6273399;22;20088;-78
2022/01/13 10:52:30;;;;;;;23.33;15.67;;;;;;;1.98;53.21;101291.38;6249266;22;20003;-78
2022/01/13 10:55:03;;;;;;;22.03;14.97;;;;;;;1.97;53.28;101274.91;6275892;22;19999;-78
2022/01/13 10:57:29;;;;;;;20.13;13.13;;;;;;;1.64;53.28;101219.41;6248762;22;20461;-78
2022/01/13 10:59:55;;;;;;;20.10;13.17;;;;;;;1.74;53.07;101231.00;6275590;22;20000;-78
2022/01/13 11:02:22;;;;;;;17.97;13.23;;;;;;;1.43;52.69;101166.66;6276315;22;20000;-78
2022/01/13 11:04:47;;;;;;;18.43;12.03;;;;;;;1.99;52.86;101257.44;6276225;22;19996;-78
2022/01/13 11:07:17;;;;;;;17.77;12.37;;;;;;;1.95;52.81;101249.88;6277355;22;20006;-78
2022/01/13 11:09:52;;;;;;;18.90;12.53;;;;;;;1.97;53.13;101250.63;6277169;22;19995;-78
2022/01/13 11:12:26;;;;;;;17.27;11.97;;;;;;;1.61;52.84;101194.38;6275865;22;19995;-78
2022/01/13 11:14:59;;;;;;;17.47;12.40;;;;;;;1.82;52.99;101210.63;6276491;22;20060;-78
2022/01/13 11:17:25;;;;;;;20.13;13.80;;;;;;;1.42;52.73;101158.00;6275587;22;19995;-78
2022/01/13 11:19:50;;;;;;;18.50;13.30;;;;;;;1.64;52.95;101173.38;6273875;22;20057;-78
2022/01/13 11:22:17;;;;;;;20.77;13.50;;;;;;;1.52;52.95;101174.03;6274594;22;20357;-78
2022/01/13 11:24:44;;;;;;;19.80;14.30;;;;;;;1.97;53.10;101227.19;6276743;22;19996;-78
2022/01/13 11:27:10;;;;;;;21.17;15.43;;;;;;;1.69;53.34;101189.59;6277241;22;20055;-78
2022/01/13 11:29:36;;;;;;;24.43;17.93;;;;;;;1.45;53.61;101138.78;6276694;22;19998;-78
2022/01/13 11:32:02;;;;;;;18.37;13.17;;;;;;;1.92;53.01;101217.84;6277286;22;20075;-78